Craigville, Indiana
Current Conditions -  °F | °C
As of 12:54 PM on Thursday 29 Jan 2015 (Local Time) from KFWA Reporting Station
Overcast Overcast  
Wind Chill: 29°   Ceiling: 1800
Heat Index: 38°   Visibility: 10mi
Dew Point: 32°   Wind: 17mph
Humidity: 79%   Direction: 290°WNW
Pressure: 29.77"   Gusts: 24mph
Location:  40.78°N, 85.09°W
Report Text: KFWA 291754Z 29015G21KT 10SM OVC018 03/00 A2977 RMK AO2 SLP088 4/001 60000 T00330000 10039 20011 53008
Loading
Personal Weather Stations






























Interactive Weather Map New forecast layout! Learn more

10-Day Weather Forecast

Advertisements
Track Severe Weather on mobile